sensor_id;sensor_type;location;lat;lon;timestamp;P1;durP1;ratioP1;P2;durP2;ratioP2
49764;SDS011;35657;51.204;-4.130;2023-06-22T00:00:48;4.68;;;2.40;;
49764;SDS011;35657;51.204;-4.130;2023-06-22T00:03:15;5.20;;;2.92;;
49764;SDS011;35657;51.204;-4.130;2023-06-22T00:05:42;4.88;;;2.72;;
49764;SDS011;35657;51.204;-4.130;2023-06-22T00:08:08;4.70;;;2.38;;
49764;SDS011;35657;51.204;-4.130;2023-06-22T00:10:33;3.20;;;2.47;;
49764;SDS011;35657;51.204;-4.130;2023-06-22T00:13:00;4.05;;;2.15;;
49764;SDS011;35657;51.204;-4.130;2023-06-22T00:15:26;3.05;;;2.58;;
49764;SDS011;35657;51.204;-4.130;2023-06-22T00:17:52;3.08;;;2.20;;
49764;SDS011;35657;51.204;-4.130;2023-06-22T00:20:17;6.53;;;2.85;;
49764;SDS011;35657;51.204;-4.130;2023-06-22T00:22:43;4.38;;;2.90;;
49764;SDS011;35657;51.204;-4.130;2023-06-22T00:25:09;5.13;;;2.72;;
49764;SDS011;35657;51.204;-4.130;2023-06-22T00:27:37;4.43;;;3.53;;
49764;SDS011;35657;51.204;-4.130;2023-06-22T00:30:02;5.65;;;3.40;;
49764;SDS011;35657;51.204;-4.130;2023-06-22T00:32:29;3.90;;;2.97;;
49764;SDS011;35657;51.204;-4.130;2023-06-22T00:34:54;5.22;;;2.88;;
49764;SDS011;35657;51.204;-4.130;2023-06-22T00:37:20;3.03;;;2.05;;
49764;SDS011;35657;51.204;-4.130;2023-06-22T00:39:50;4.80;;;3.28;;
49764;SDS011;35657;51.204;-4.130;2023-06-22T00:42:16;3.95;;;2.63;;
49764;SDS011;35657;51.204;-4.130;2023-06-22T00:44:42;5.25;;;2.63;;
49764;SDS011;35657;51.204;-4.130;2023-06-22T00:47:10;5.60;;;2.90;;
49764;SDS011;35657;51.204;-4.130;2023-06-22T00:49:38;5.03;;;2.78;;
49764;SDS011;35657;51.204;-4.130;2023-06-22T00:52:04;3.78;;;2.80;;
49764;SDS011;35657;51.204;-4.130;2023-06-22T00:54:41;3.70;;;2.58;;
49764;SDS011;35657;51.204;-4.130;2023-06-22T00:57:10;4.57;;;2.55;;
49764;SDS011;35657;51.204;-4.130;2023-06-22T00:59:44;5.10;;;2.53;;
49764;SDS011;35657;51.204;-4.130;2023-06-22T01:02:10;4.00;;;2.60;;
49764;SDS011;35657;51.204;-4.130;2023-06-22T01:04:37;6.22;;;3.53;;
49764;SDS011;35657;51.204;-4.130;2023-06-22T01:12:38;3.63;;;2.58;;
49764;SDS011;35657;51.204;-4.130;2023-06-22T01:15:11;3.47;;;2.55;;
49764;SDS011;35657;51.204;-4.130;2023-06-22T01:17:44;4.00;;;2.47;;
49764;SDS011;35657;51.204;-4.130;2023-06-22T01:20:10;4.00;;;2.55;;
49764;SDS011;35657;51.204;-4.130;2023-06-22T01:28:47;4.65;;;2.70;;
49764;SDS011;35657;51.204;-4.130;2023-06-22T01:31:16;5.10;;;2.40;;
49764;SDS011;35657;51.204;-4.130;2023-06-22T01:33:45;5.68;;;2.78;;
49764;SDS011;35657;51.204;-4.130;2023-06-22T01:36:17;5.73;;;2.83;;
49764;SDS011;35657;51.204;-4.130;2023-06-22T01:38:44;2.83;;;2.10;;
49764;SDS011;35657;51.204;-4.130;2023-06-22T01:41:12;2.83;;;2.00;;
49764;SDS011;35657;51.204;-4.130;2023-06-22T01:43:37;4.22;;;2.70;;
49764;SDS011;35657;51.204;-4.130;2023-06-22T01:46:04;3.90;;;2.28;;
49764;SDS011;35657;51.204;-4.130;2023-06-22T01:48:30;5.80;;;3.00;;
49764;SDS011;35657;51.204;-4.130;2023-06-22T01:50:56;4.43;;;2.55;;
49764;SDS011;35657;51.204;-4.130;2023-06-22T01:53:22;4.10;;;2.65;;
49764;SDS011;35657;51.204;-4.130;2023-06-22T01:55:49;6.15;;;2.47;;
49764;SDS011;35657;51.204;-4.130;2023-06-22T01:58:15;3.92;;;2.00;;
49764;SDS011;35657;51.204;-4.130;2023-06-22T02:00:44;4.40;;;2.55;;
49764;SDS011;35657;51.204;-4.130;2023-06-22T02:03:30;2.83;;;2.20;;
49764;SDS011;35657;51.204;-4.130;2023-06-22T02:06:01;4.68;;;2.55;;
49764;SDS011;35657;51.204;-4.130;2023-06-22T02:08:32;4.25;;;2.80;;
49764;SDS011;35657;51.204;-4.130;2023-06-22T02:11:06;6.35;;;2.40;;
49764;SDS011;35657;51.204;-4.130;2023-06-22T02:13:33;3.55;;;1.92;;
49764;SDS011;35657;51.204;-4.130;2023-06-22T02:16:00;4.22;;;2.25;;
49764;SDS011;35657;51.204;-4.130;2023-06-22T02:18:27;3.58;;;2.42;;
49764;SDS011;35657;51.204;-4.130;2023-06-22T02:20:53;3.50;;;2.13;;
49764;SDS011;35657;51.204;-4.130;2023-06-22T02:23:18;2.47;;;1.80;;
49764;SDS011;35657;51.204;-4.130;2023-06-22T02:25:44;3.80;;;2.50;;
49764;SDS011;35657;51.204;-4.130;2023-06-22T02:28:10;6.72;;;2.22;;
49764;SDS011;35657;51.204;-4.130;2023-06-22T02:30:36;5.35;;;2.47;;
49764;SDS011;35657;51.204;-4.130;2023-06-22T02:33:01;3.53;;;2.20;;
49764;SDS011;35657;51.204;-4.130;2023-06-22T02:35:27;3.22;;;1.83;;
49764;SDS011;35657;51.204;-4.130;2023-06-22T02:38:00;4.55;;;2.30;;
49764;SDS011;35657;51.204;-4.130;2023-06-22T02:40:27;6.15;;;2.10;;
49764;SDS011;35657;51.204;-4.130;2023-06-22T02:42:54;4.88;;;2.28;;
49764;SDS011;35657;51.204;-4.130;2023-06-22T02:45:20;1.98;;;1.58;;
49764;SDS011;35657;51.204;-4.130;2023-06-22T02:47:46;4.38;;;2.00;;
49764;SDS011;35657;51.204;-4.130;2023-06-22T02:50:13;3.58;;;2.08;;
49764;SDS011;35657;51.204;-4.130;2023-06-22T02:52:39;5.00;;;2.03;;
49764;SDS011;35657;51.204;-4.130;2023-06-22T02:55:05;2.70;;;2.20;;
49764;SDS011;35657;51.204;-4.130;2023-06-22T02:57:32;3.70;;;2.55;;
49764;SDS011;35657;51.204;-4.130;2023-06-22T02:59:58;4.30;;;2.08;;
49764;SDS011;35657;51.204;-4.130;2023-06-22T03:02:24;4.10;;;2.03;;
49764;SDS011;35657;51.204;-4.130;2023-06-22T03:04:51;2.85;;;2.30;;
49764;SDS011;35657;51.204;-4.130;2023-06-22T03:07:18;3.65;;;2.33;;
49764;SDS011;35657;51.204;-4.130;2023-06-22T03:09:45;3.47;;;2.00;;
49764;SDS011;35657;51.204;-4.130;2023-06-22T03:12:10;4.00;;;1.83;;
49764;SDS011;35657;51.204;-4.130;2023-06-22T03:14:36;4.47;;;2.20;;
49764;SDS011;35657;51.204;-4.130;2023-06-22T03:17:04;6.38;;;2.40;;
49764;SDS011;35657;51.204;-4.130;2023-06-22T03:19:30;3.88;;;1.95;;
49764;SDS011;35657;51.204;-4.130;2023-06-22T03:21:59;2.92;;;1.80;;
49764;SDS011;35657;51.204;-4.130;2023-06-22T03:24:25;2.22;;;1.58;;
49764;SDS011;35657;51.204;-4.130;2023-06-22T03:26:54;3.38;;;2.40;;
49764;SDS011;35657;51.204;-4.130;2023-06-22T03:29:20;2.97;;;2.13;;
49764;SDS011;35657;51.204;-4.130;2023-06-22T03:31:45;3.95;;;2.05;;
49764;SDS011;35657;51.204;-4.130;2023-06-22T03:34:11;3.58;;;1.95;;
49764;SDS011;35657;51.204;-4.130;2023-06-22T03:36:37;2.50;;;2.15;;
49764;SDS011;35657;51.204;-4.130;2023-06-22T03:39:02;3.55;;;1.77;;
49764;SDS011;35657;51.204;-4.130;2023-06-22T03:41:28;3.03;;;1.92;;
49764;SDS011;35657;51.204;-4.130;2023-06-22T03:43:54;5.28;;;2.00;;
49764;SDS011;35657;51.204;-4.130;2023-06-22T03:46:19;3.78;;;1.83;;
49764;SDS011;35657;51.204;-4.130;2023-06-22T03:48:45;4.95;;;2.03;;
49764;SDS011;35657;51.204;-4.130;2023-06-22T03:51:11;4.43;;;1.92;;
49764;SDS011;35657;51.204;-4.130;2023-06-22T03:53:36;4.57;;;2.15;;
49764;SDS011;35657;51.204;-4.130;2023-06-22T03:56:02;4.55;;;2.08;;
49764;SDS011;35657;51.204;-4.130;2023-06-22T03:58:28;3.72;;;1.98;;
49764;SDS011;35657;51.204;-4.130;2023-06-22T04:00:57;4.82;;;1.98;;
49764;SDS011;35657;51.204;-4.130;2023-06-22T04:03:25;4.30;;;2.53;;
49764;SDS011;35657;51.204;-4.130;2023-06-22T04:05:50;3.85;;;2.22;;
49764;SDS011;35657;51.204;-4.130;2023-06-22T04:08:16;6.22;;;2.00;;
49764;SDS011;35657;51.204;-4.130;2023-06-22T04:10:43;2.30;;;1.90;;
49764;SDS011;35657;51.204;-4.130;2023-06-22T04:13:08;3.70;;;1.85;;
49764;SDS011;35657;51.204;-4.130;2023-06-22T04:15:34;3.10;;;2.08;;
49764;SDS011;35657;51.204;-4.130;2023-06-22T04:18:00;3.75;;;1.85;;
49764;SDS011;35657;51.204;-4.130;2023-06-22T04:20:25;2.78;;;1.95;;
49764;SDS011;35657;51.204;-4.130;2023-06-22T04:22:54;4.05;;;1.98;;
49764;SDS011;35657;51.204;-4.130;2023-06-22T04:25:20;4.10;;;1.90;;
49764;SDS011;35657;51.204;-4.130;2023-06-22T04:27:47;3.80;;;2.08;;
49764;SDS011;35657;51.204;-4.130;2023-06-22T04:30:13;3.35;;;2.03;;
49764;SDS011;35657;51.204;-4.130;2023-06-22T04:32:41;2.35;;;1.67;;
49764;SDS011;35657;51.204;-4.130;2023-06-22T04:35:08;6.47;;;1.98;;
49764;SDS011;35657;51.204;-4.130;2023-06-22T04:37:34;4.80;;;2.03;;
49764;SDS011;35657;51.204;-4.130;2023-06-22T04:40:00;3.83;;;2.17;;
49764;SDS011;35657;51.204;-4.130;2023-06-22T04:42:26;3.15;;;1.90;;
49764;SDS011;35657;51.204;-4.130;2023-06-22T04:44:52;3.17;;;1.80;;
49764;SDS011;35657;51.204;-4.130;2023-06-22T04:47:17;3.95;;;2.05;;
49764;SDS011;35657;51.204;-4.130;2023-06-22T04:49:43;5.68;;;2.00;;
49764;SDS011;35657;51.204;-4.130;2023-06-22T04:52:10;4.63;;;1.95;;
49764;SDS011;35657;51.204;-4.130;2023-06-22T04:54:37;5.53;;;2.25;;
49764;SDS011;35657;51.204;-4.130;2023-06-22T04:57:05;3.08;;;1.92;;
49764;SDS011;35657;51.204;-4.130;2023-06-22T04:59:35;4.45;;;2.30;;
49764;SDS011;35657;51.204;-4.130;2023-06-22T05:02:04;3.70;;;2.25;;
49764;SDS011;35657;51.204;-4.130;2023-06-22T05:04:31;3.30;;;2.03;;
49764;SDS011;35657;51.204;-4.130;2023-06-22T05:06:57;2.17;;;1.65;;
49764;SDS011;35657;51.204;-4.130;2023-06-22T05:09:25;4.78;;;2.00;;
49764;SDS011;35657;51.204;-4.130;2023-06-22T05:11:51;2.80;;;1.85;;
49764;SDS011;35657;51.204;-4.130;2023-06-22T05:14:16;7.22;;;1.88;;
49764;SDS011;35657;51.204;-4.130;2023-06-22T05:16:43;2.70;;;2.15;;
49764;SDS011;35657;51.204;-4.130;2023-06-22T05:19:09;2.95;;;1.83;;
49764;SDS011;35657;51.204;-4.130;2023-06-22T05:21:35;3.67;;;1.77;;
49764;SDS011;35657;51.204;-4.130;2023-06-22T05:24:01;3.50;;;1.58;;
49764;SDS011;35657;51.204;-4.130;2023-06-22T05:26:31;2.63;;;1.98;;
49764;SDS011;35657;51.204;-4.130;2023-06-22T05:28:59;6.32;;;2.10;;
49764;SDS011;35657;51.204;-4.130;2023-06-22T05:31:26;2.40;;;1.75;;
49764;SDS011;35657;51.204;-4.130;2023-06-22T05:33:52;3.03;;;1.70;;
49764;SDS011;35657;51.204;-4.130;2023-06-22T05:36:18;2.75;;;2.35;;
49764;SDS011;35657;51.204;-4.130;2023-06-22T05:38:45;7.55;;;2.58;;
49764;SDS011;35657;51.204;-4.130;2023-06-22T05:41:11;3.25;;;2.03;;
49764;SDS011;35657;51.204;-4.130;2023-06-22T05:43:36;3.35;;;2.28;;
49764;SDS011;35657;51.204;-4.130;2023-06-22T05:46:03;4.65;;;2.50;;
49764;SDS011;35657;51.204;-4.130;2023-06-22T05:48:29;2.70;;;2.10;;
49764;SDS011;35657;51.204;-4.130;2023-06-22T05:50:55;2.70;;;2.10;;
49764;SDS011;35657;51.204;-4.130;2023-06-22T05:53:21;5.70;;;2.25;;
49764;SDS011;35657;51.204;-4.130;2023-06-22T05:55:47;3.83;;;2.58;;
49764;SDS011;35657;51.204;-4.130;2023-06-22T05:58:12;2.60;;;2.00;;
49764;SDS011;35657;51.204;-4.130;2023-06-22T06:00:39;3.53;;;2.13;;
49764;SDS011;35657;51.204;-4.130;2023-06-22T06:03:06;3.08;;;2.33;;
49764;SDS011;35657;51.204;-4.130;2023-06-22T06:05:32;4.25;;;2.60;;
49764;SDS011;35657;51.204;-4.130;2023-06-22T06:07:59;4.05;;;2.78;;
49764;SDS011;35657;51.204;-4.130;2023-06-22T06:10:26;5.25;;;2.53;;
49764;SDS011;35657;51.204;-4.130;2023-06-22T06:12:54;4.78;;;3.10;;
49764;SDS011;35657;51.204;-4.130;2023-06-22T06:15:20;3.60;;;2.58;;
49764;SDS011;35657;51.204;-4.130;2023-06-22T06:17:47;4.45;;;2.38;;
49764;SDS011;35657;51.204;-4.130;2023-06-22T06:20:13;3.47;;;2.55;;
49764;SDS011;35657;51.204;-4.130;2023-06-22T06:22:40;3.58;;;2.70;;
49764;SDS011;35657;51.204;-4.130;2023-06-22T06:25:05;7.05;;;2.88;;
49764;SDS011;35657;51.204;-4.130;2023-06-22T06:27:31;4.10;;;2.85;;
49764;SDS011;35657;51.204;-4.130;2023-06-22T06:29:57;5.57;;;3.13;;
49764;SDS011;35657;51.204;-4.130;2023-06-22T06:32:23;4.72;;;2.83;;
49764;SDS011;35657;51.204;-4.130;2023-06-22T06:34:49;4.40;;;3.25;;
49764;SDS011;35657;51.204;-4.130;2023-06-22T06:37:14;7.65;;;5.40;;
49764;SDS011;35657;51.204;-4.130;2023-06-22T06:39:40;4.30;;;3.00;;
49764;SDS011;35657;51.204;-4.130;2023-06-22T06:42:06;5.82;;;3.53;;
49764;SDS011;35657;51.204;-4.130;2023-06-22T06:44:32;5.72;;;3.35;;
49764;SDS011;35657;51.204;-4.130;2023-06-22T06:46:57;5.28;;;3.17;;
49764;SDS011;35657;51.204;-4.130;2023-06-22T06:49:23;4.00;;;2.72;;
49764;SDS011;35657;51.204;-4.130;2023-06-22T06:51:49;5.88;;;3.47;;
49764;SDS011;35657;51.204;-4.130;2023-06-22T06:54:15;8.88;;;2.60;;
49764;SDS011;35657;51.204;-4.130;2023-06-22T06:56:41;5.30;;;3.03;;
49764;SDS011;35657;51.204;-4.130;2023-06-22T06:59:09;4.55;;;2.80;;
49764;SDS011;35657;51.204;-4.130;2023-06-22T07:01:35;6.03;;;3.22;;
49764;SDS011;35657;51.204;-4.130;2023-06-22T07:04:01;3.92;;;2.63;;
49764;SDS011;35657;51.204;-4.130;2023-06-22T07:06:26;4.53;;;2.35;;
49764;SDS011;35657;51.204;-4.130;2023-06-22T07:08:55;4.10;;;2.70;;
49764;SDS011;35657;51.204;-4.130;2023-06-22T07:11:20;4.72;;;2.85;;
49764;SDS011;35657;51.204;-4.130;2023-06-22T07:13:46;4.97;;;2.40;;
49764;SDS011;35657;51.204;-4.130;2023-06-22T07:16:12;5.53;;;3.15;;
49764;SDS011;35657;51.204;-4.130;2023-06-22T07:18:39;4.53;;;2.90;;
49764;SDS011;35657;51.204;-4.130;2023-06-22T07:21:05;4.57;;;2.63;;
49764;SDS011;35657;51.204;-4.130;2023-06-22T07:23:32;3.88;;;2.75;;
49764;SDS011;35657;51.204;-4.130;2023-06-22T07:25:58;3.85;;;2.13;;
49764;SDS011;35657;51.204;-4.130;2023-06-22T07:28:27;2.65;;;2.38;;
49764;SDS011;35657;51.204;-4.130;2023-06-22T07:30:56;3.83;;;2.30;;
49764;SDS011;35657;51.204;-4.130;2023-06-22T07:33:22;3.78;;;2.70;;
49764;SDS011;35657;51.204;-4.130;2023-06-22T07:35:47;2.53;;;2.05;;
49764;SDS011;35657;51.204;-4.130;2023-06-22T07:38:13;2.65;;;2.38;;
49764;SDS011;35657;51.204;-4.130;2023-06-22T07:40:40;3.50;;;2.78;;
49764;SDS011;35657;51.204;-4.130;2023-06-22T07:43:07;3.63;;;2.50;;
49764;SDS011;35657;51.204;-4.130;2023-06-22T07:45:32;5.22;;;2.65;;
49764;SDS011;35657;51.204;-4.130;2023-06-22T07:48:00;7.05;;;3.50;;
49764;SDS011;35657;51.204;-4.130;2023-06-22T07:50:26;6.18;;;2.65;;
49764;SDS011;35657;51.204;-4.130;2023-06-22T07:52:52;3.50;;;2.40;;
49764;SDS011;35657;51.204;-4.130;2023-06-22T07:55:18;2.92;;;2.40;;
49764;SDS011;35657;51.204;-4.130;2023-06-22T07:57:43;5.57;;;2.55;;
49764;SDS011;35657;51.204;-4.130;2023-06-22T08:00:09;5.93;;;3.10;;
49764;SDS011;35657;51.204;-4.130;2023-06-22T08:02:40;6.45;;;2.10;;
49764;SDS011;35657;51.204;-4.130;2023-06-22T08:05:07;4.35;;;2.78;;
49764;SDS011;35657;51.204;-4.130;2023-06-22T08:07:34;5.90;;;2.35;;
49764;SDS011;35657;51.204;-4.130;2023-06-22T08:10:02;4.47;;;3.00;;
49764;SDS011;35657;51.204;-4.130;2023-06-22T08:12:28;7.13;;;2.63;;
49764;SDS011;35657;51.204;-4.130;2023-06-22T08:14:53;4.85;;;2.47;;
49764;SDS011;35657;51.204;-4.130;2023-06-22T08:17:19;4.50;;;2.60;;
49764;SDS011;35657;51.204;-4.130;2023-06-22T08:19:45;7.30;;;2.60;;
49764;SDS011;35657;51.204;-4.130;2023-06-22T08:22:10;6.50;;;3.00;;
49764;SDS011;35657;51.204;-4.130;2023-06-22T08:24:36;4.53;;;2.85;;
49764;SDS011;35657;51.204;-4.130;2023-06-22T08:27:02;4.18;;;2.28;;
49764;SDS011;35657;51.204;-4.130;2023-06-22T08:29:28;4.05;;;2.20;;
49764;SDS011;35657;51.204;-4.130;2023-06-22T08:31:53;4.43;;;2.65;;
49764;SDS011;35657;51.204;-4.130;2023-06-22T08:34:19;2.85;;;2.00;;
49764;SDS011;35657;51.204;-4.130;2023-06-22T08:36:50;5.50;;;2.20;;
49764;SDS011;35657;51.204;-4.130;2023-06-22T08:39:18;3.55;;;2.30;;
49764;SDS011;35657;51.204;-4.130;2023-06-22T08:41:47;3.28;;;2.30;;
49764;SDS011;35657;51.204;-4.130;2023-06-22T08:44:13;2.60;;;1.92;;
49764;SDS011;35657;51.204;-4.130;2023-06-22T08:46:40;3.55;;;1.90;;
49764;SDS011;35657;51.204;-4.130;2023-06-22T08:49:07;4.20;;;2.45;;
49764;SDS011;35657;51.204;-4.130;2023-06-22T08:51:35;2.55;;;2.10;;
49764;SDS011;35657;51.204;-4.130;2023-06-22T08:54:06;3.47;;;1.80;;
49764;SDS011;35657;51.204;-4.130;2023-06-22T08:56:31;3.72;;;2.25;;
49764;SDS011;35657;51.204;-4.130;2023-06-22T08:58:57;3.67;;;2.03;;
49764;SDS011;35657;51.204;-4.130;2023-06-22T09:01:23;3.60;;;2.30;;
49764;SDS011;35657;51.204;-4.130;2023-06-22T09:03:49;5.47;;;2.13;;
49764;SDS011;35657;51.204;-4.130;2023-06-22T09:06:22;3.30;;;1.90;;
49764;SDS011;35657;51.204;-4.130;2023-06-22T09:08:48;3.58;;;1.88;;
49764;SDS011;35657;51.204;-4.130;2023-06-22T09:11:14;1.90;;;1.70;;
49764;SDS011;35657;51.204;-4.130;2023-06-22T09:13:40;5.40;;;2.53;;
49764;SDS011;35657;51.204;-4.130;2023-06-22T09:16:05;3.78;;;2.53;;
49764;SDS011;35657;51.204;-4.130;2023-06-22T09:18:31;2.88;;;1.92;;
49764;SDS011;35657;51.204;-4.130;2023-06-22T09:20:58;3.90;;;2.10;;
49764;SDS011;35657;51.204;-4.130;2023-06-22T09:23:24;2.83;;;2.13;;
49764;SDS011;35657;51.204;-4.130;2023-06-22T09:25:50;4.95;;;2.40;;
49764;SDS011;35657;51.204;-4.130;2023-06-22T09:28:16;2.75;;;2.20;;
49764;SDS011;35657;51.204;-4.130;2023-06-22T09:30:44;2.50;;;2.30;;
49764;SDS011;35657;51.204;-4.130;2023-06-22T09:33:10;4.10;;;2.50;;
49764;SDS011;35657;51.204;-4.130;2023-06-22T09:35:36;3.58;;;2.53;;
49764;SDS011;35657;51.204;-4.130;2023-06-22T09:38:02;3.72;;;2.60;;
49764;SDS011;35657;51.204;-4.130;2023-06-22T09:40:27;5.82;;;2.08;;
49764;SDS011;35657;51.204;-4.130;2023-06-22T09:42:53;2.92;;;2.00;;
49764;SDS011;35657;51.204;-4.130;2023-06-22T09:45:19;2.20;;;1.80;;
49764;SDS011;35657;51.204;-4.130;2023-06-22T09:47:45;2.67;;;2.00;;
49764;SDS011;35657;51.204;-4.130;2023-06-22T09:50:10;5.57;;;2.35;;
49764;SDS011;35657;51.204;-4.130;2023-06-22T09:52:36;3.20;;;2.22;;
49764;SDS011;35657;51.204;-4.130;2023-06-22T09:55:02;4.40;;;2.30;;
49764;SDS011;35657;51.204;-4.130;2023-06-22T09:57:28;5.75;;;2.40;;
49764;SDS011;35657;51.204;-4.130;2023-06-22T09:59:55;4.18;;;2.65;;
49764;SDS011;35657;51.204;-4.130;2023-06-22T10:02:20;4.15;;;2.30;;
49764;SDS011;35657;51.204;-4.130;2023-06-22T10:04:47;4.18;;;2.40;;
49764;SDS011;35657;51.204;-4.130;2023-06-22T10:07:13;4.25;;;2.50;;
49764;SDS011;35657;51.204;-4.130;2023-06-22T10:09:39;2.47;;;2.00;;
49764;SDS011;35657;51.204;-4.130;2023-06-22T10:12:05;4.30;;;2.20;;
49764;SDS011;35657;51.204;-4.130;2023-06-22T10:14:31;2.75;;;2.17;;
49764;SDS011;35657;51.204;-4.130;2023-06-22T10:16:56;2.00;;;1.80;;
49764;SDS011;35657;51.204;-4.130;2023-06-22T10:19:22;2.55;;;2.05;;
49764;SDS011;35657;51.204;-4.130;2023-06-22T10:21:48;4.18;;;2.40;;
49764;SDS011;35657;51.204;-4.130;2023-06-22T10:24:13;4.03;;;2.45;;
49764;SDS011;35657;51.204;-4.130;2023-06-22T10:26:39;3.30;;;2.33;;
49764;SDS011;35657;51.204;-4.130;2023-06-22T10:29:05;2.35;;;2.00;;
49764;SDS011;35657;51.204;-4.130;2023-06-22T10:31:30;3.13;;;1.80;;
49764;SDS011;35657;51.204;-4.130;2023-06-22T10:33:56;2.20;;;2.00;;
49764;SDS011;35657;51.204;-4.130;2023-06-22T10:36:22;3.70;;;2.30;;
49764;SDS011;35657;51.204;-4.130;2023-06-22T10:38:48;2.80;;;1.90;;
49764;SDS011;35657;51.204;-4.130;2023-06-22T10:41:14;2.28;;;1.63;;
49764;SDS011;35657;51.204;-4.130;2023-06-22T10:43:41;3.05;;;2.30;;
49764;SDS011;35657;51.204;-4.130;2023-06-22T10:46:06;3.08;;;2.53;;
49764;SDS011;35657;51.204;-4.130;2023-06-22T10:48:32;5.60;;;1.88;;
49764;SDS011;35657;51.204;-4.130;2023-06-22T10:50:58;3.17;;;2.30;;
49764;SDS011;35657;51.204;-4.130;2023-06-22T10:53:24;3.72;;;1.92;;
49764;SDS011;35657;51.204;-4.130;2023-06-22T10:55:50;4.10;;;2.25;;
49764;SDS011;35657;51.204;-4.130;2023-06-22T10:58:20;7.07;;;2.20;;
49764;SDS011;35657;51.204;-4.130;2023-06-22T11:00:46;2.03;;;1.58;;
49764;SDS011;35657;51.204;-4.130;2023-06-22T11:03:11;2.72;;;1.52;;
49764;SDS011;35657;51.204;-4.130;2023-06-22T11:05:39;2.83;;;2.15;;
49764;SDS011;35657;51.204;-4.130;2023-06-22T11:08:05;4.15;;;2.28;;
49764;SDS011;35657;51.204;-4.130;2023-06-22T11:10:30;3.42;;;1.92;;
49764;SDS011;35657;51.204;-4.130;2023-06-22T11:12:56;2.75;;;2.08;;
49764;SDS011;35657;51.204;-4.130;2023-06-22T11:15:23;3.42;;;1.80;;
49764;SDS011;35657;51.204;-4.130;2023-06-22T11:17:49;15.27;;;1.98;;
49764;SDS011;35657;51.204;-4.130;2023-06-22T11:20:14;3.38;;;1.90;;
49764;SDS011;35657;51.204;-4.130;2023-06-22T11:22:41;2.97;;;1.90;;
49764;SDS011;35657;51.204;-4.130;2023-06-22T11:25:07;3.03;;;2.00;;
49764;SDS011;35657;51.204;-4.130;2023-06-22T11:27:33;1.77;;;1.42;;
49764;SDS011;35657;51.204;-4.130;2023-06-22T11:29:59;2.35;;;1.70;;
49764;SDS011;35657;51.204;-4.130;2023-06-22T11:32:25;2.50;;;1.52;;
49764;SDS011;35657;51.204;-4.130;2023-06-22T11:34:51;1.90;;;1.48;;
49764;SDS011;35657;51.204;-4.130;2023-06-22T11:37:17;3.33;;;1.70;;
49764;SDS011;35657;51.204;-4.130;2023-06-22T11:39:42;2.20;;;1.58;;
49764;SDS011;35657;51.204;-4.130;2023-06-22T11:42:11;2.75;;;1.42;;
49764;SDS011;35657;51.204;-4.130;2023-06-22T11:44:37;2.17;;;1.50;;
49764;SDS011;35657;51.204;-4.130;2023-06-22T11:47:03;1.90;;;1.30;;
49764;SDS011;35657;51.204;-4.130;2023-06-22T11:49:32;2.05;;;1.30;;
49764;SDS011;35657;51.204;-4.130;2023-06-22T11:51:58;2.13;;;1.40;;
49764;SDS011;35657;51.204;-4.130;2023-06-22T11:54:23;2.53;;;1.30;;
49764;SDS011;35657;51.204;-4.130;2023-06-22T11:56:49;2.55;;;1.52;;
49764;SDS011;35657;51.204;-4.130;2023-06-22T11:59:14;1.45;;;1.27;;
49764;SDS011;35657;51.204;-4.130;2023-06-22T12:01:40;1.48;;;1.38;;
49764;SDS011;35657;51.204;-4.130;2023-06-22T12:04:06;3.03;;;1.25;;
49764;SDS011;35657;51.204;-4.130;2023-06-22T12:06:32;2.10;;;1.30;;
49764;SDS011;35657;51.204;-4.130;2023-06-22T12:08:58;3.70;;;1.40;;
49764;SDS011;35657;51.204;-4.130;2023-06-22T12:11:24;2.03;;;1.17;;
49764;SDS011;35657;51.204;-4.130;2023-06-22T12:13:49;3.22;;;1.75;;
49764;SDS011;35657;51.204;-4.130;2023-06-22T12:16:15;1.60;;;1.20;;
49764;SDS011;35657;51.204;-4.130;2023-06-22T12:18:41;2.85;;;1.30;;
49764;SDS011;35657;51.204;-4.130;2023-06-22T12:21:07;1.92;;;1.00;;
49764;SDS011;35657;51.204;-4.130;2023-06-22T12:23:32;2.42;;;1.17;;
49764;SDS011;35657;51.204;-4.130;2023-06-22T12:25:58;2.10;;;1.10;;
49764;SDS011;35657;51.204;-4.130;2023-06-22T12:28:25;1.58;;;1.20;;
49764;SDS011;35657;51.204;-4.130;2023-06-22T12:30:50;2.08;;;1.23;;
49764;SDS011;35657;51.204;-4.130;2023-06-22T12:33:16;1.17;;;1.08;;
49764;SDS011;35657;51.204;-4.130;2023-06-22T12:35:42;1.33;;;1.02;;
49764;SDS011;35657;51.204;-4.130;2023-06-22T12:38:10;1.40;;;1.10;;
49764;SDS011;35657;51.204;-4.130;2023-06-22T12:40:36;3.35;;;1.25;;
49764;SDS011;35657;51.204;-4.130;2023-06-22T12:43:02;2.22;;;1.10;;
49764;SDS011;35657;51.204;-4.130;2023-06-22T12:45:27;1.77;;;1.25;;
49764;SDS011;35657;51.204;-4.130;2023-06-22T12:47:56;2.08;;;1.27;;
49764;SDS011;35657;51.204;-4.130;2023-06-22T12:50:22;1.48;;;1.00;;
49764;SDS011;35657;51.204;-4.130;2023-06-22T12:52:48;1.98;;;1.55;;
49764;SDS011;35657;51.204;-4.130;2023-06-22T12:55:13;2.40;;;1.30;;
49764;SDS011;35657;51.204;-4.130;2023-06-22T12:57:39;2.33;;;1.10;;
49764;SDS011;35657;51.204;-4.130;2023-06-22T13:00:05;1.83;;;1.35;;
49764;SDS011;35657;51.204;-4.130;2023-06-22T13:02:33;2.10;;;1.48;;
49764;SDS011;35657;51.204;-4.130;2023-06-22T13:04:58;2.20;;;1.23;;
49764;SDS011;35657;51.204;-4.130;2023-06-22T13:07:24;3.20;;;1.45;;
49764;SDS011;35657;51.204;-4.130;2023-06-22T13:09:50;3.90;;;1.27;;
49764;SDS011;35657;51.204;-4.130;2023-06-22T13:12:20;2.53;;;1.40;;
49764;SDS011;35657;51.204;-4.130;2023-06-22T13:14:45;5.70;;;1.73;;
49764;SDS011;35657;51.204;-4.130;2023-06-22T13:17:12;2.92;;;1.65;;
49764;SDS011;35657;51.204;-4.130;2023-06-22T13:19:39;2.20;;;1.20;;
49764;SDS011;35657;51.204;-4.130;2023-06-22T13:22:04;1.33;;;1.02;;
49764;SDS011;35657;51.204;-4.130;2023-06-22T13:24:32;1.63;;;1.23;;
49764;SDS011;35657;51.204;-4.130;2023-06-22T13:26:58;1.60;;;1.40;;
49764;SDS011;35657;51.204;-4.130;2023-06-22T13:29:23;1.90;;;1.13;;
49764;SDS011;35657;51.204;-4.130;2023-06-22T13:31:49;2.38;;;1.40;;
49764;SDS011;35657;51.204;-4.130;2023-06-22T13:34:15;1.60;;;1.20;;
49764;SDS011;35657;51.204;-4.130;2023-06-22T13:36:40;2.28;;;1.63;;
49764;SDS011;35657;51.204;-4.130;2023-06-22T13:39:06;3.33;;;1.63;;
49764;SDS011;35657;51.204;-4.130;2023-06-22T13:41:32;1.52;;;1.10;;
49764;SDS011;35657;51.204;-4.130;2023-06-22T13:43:57;1.98;;;1.38;;
49764;SDS011;35657;51.204;-4.130;2023-06-22T13:46:23;1.63;;;1.30;;
49764;SDS011;35657;51.204;-4.130;2023-06-22T13:48:49;1.80;;;1.40;;
49764;SDS011;35657;51.204;-4.130;2023-06-22T13:51:14;1.98;;;1.50;;
49764;SDS011;35657;51.204;-4.130;2023-06-22T13:53:40;2.40;;;1.13;;
49764;SDS011;35657;51.204;-4.130;2023-06-22T13:56:05;6.63;;;1.42;;
49764;SDS011;35657;51.204;-4.130;2023-06-22T13:58:32;2.50;;;1.50;;
49764;SDS011;35657;51.204;-4.130;2023-06-22T14:00:57;2.17;;;1.48;;
49764;SDS011;35657;51.204;-4.130;2023-06-22T14:03:23;1.60;;;1.33;;
49764;SDS011;35657;51.204;-4.130;2023-06-22T14:05:49;1.30;;;1.10;;
49764;SDS011;35657;51.204;-4.130;2023-06-22T14:08:14;2.88;;;1.20;;
49764;SDS011;35657;51.204;-4.130;2023-06-22T14:10:40;1.83;;;1.42;;
49764;SDS011;35657;51.204;-4.130;2023-06-22T14:13:06;2.97;;;1.55;;
49764;SDS011;35657;51.204;-4.130;2023-06-22T14:15:32;1.63;;;1.45;;
49764;SDS011;35657;51.204;-4.130;2023-06-22T14:17:57;1.83;;;1.30;;
49764;SDS011;35657;51.204;-4.130;2023-06-22T14:20:23;2.15;;;1.83;;
49764;SDS011;35657;51.204;-4.130;2023-06-22T14:22:49;1.38;;;1.25;;
49764;SDS011;35657;51.204;-4.130;2023-06-22T14:25:14;2.10;;;1.30;;
49764;SDS011;35657;51.204;-4.130;2023-06-22T14:27:40;3.58;;;1.30;;
49764;SDS011;35657;51.204;-4.130;2023-06-22T14:30:06;1.63;;;1.35;;
49764;SDS011;35657;51.204;-4.130;2023-06-22T14:32:32;3.38;;;1.60;;
49764;SDS011;35657;51.204;-4.130;2023-06-22T14:34:57;2.33;;;1.88;;
49764;SDS011;35657;51.204;-4.130;2023-06-22T14:37:23;1.65;;;1.17;;
49764;SDS011;35657;51.204;-4.130;2023-06-22T14:39:49;1.98;;;1.42;;